Escanaba, MI

6:53 AM EST on February 25, 2017 (GMT -0500)
Hurley Marine Lake Side Weather | | Change Station
Active Advisory: Winter Weather Advisory

Elev 607 ft 45.73 °N, 87.06 °W | Updated 1 second ago

Light Snow
Light Snow Mist
20.1 °F
Feels Like 5 °F
N
19.0
Wind Variable Wind from WNW
Gusts 22.0 mph

Today
High -- | Low -- °F
--% Chance of Precip.
Yesterday
High -- | Low -- °F
Precip. -- in
Pressure 29.58 in
Visibility 4.0 miles
Clouds Mostly Cloudy 1900 ft
Overcast 2400 ft
Windchill 5 °F
Dew Point 17 °F
Humidity 89%
Rainfall 0.00 in
Snow Depth Not available.
7:33 AM 6:29 PM
Waning Crescent, 2% visible
METAR KESC 251056Z AUTO 30010G18KT 4SM -SN BR BKN019 OVC024 M06/M08 A2951 RMK AO2 SLP017 P0000 T10611083 FZRANO
Pressure 29.58 in
Visibility 4.0 miles
Clouds Mostly Cloudy 1900 ft
Overcast 2400 ft
Windchill 5 °F
Dew Point 17 °F
Humidity 89%
Rainfall 0.00 in
Snow Depth Not available.
7:33 AM 6:29 PM
Waning Crescent, 2% visible
METAR KESC 251056Z AUTO 30010G18KT 4SM -SN BR BKN019 OVC024 M06/M08 A2951 RMK AO2 SLP017 P0000 T10611083 FZRANO

Get Your Daily Forecast Email!

Thanks for signing up!

Be on the lookout for a verification email in your inbox.

You'll start receiving the daily forecast at 8 AM.

×

10-Day Weather Forecast

Almanac

Astronomy

Feb. 25, 2017 Rise Set
Actual Time
Civil Twilight
Nautical Twilight
Astronomical Twilight
Moon
Length of Visible Light
Length of Day
Tomorrow will be .
, % of the Moon is Illuminated

Today's Extremes

State Highs State Lows

Community

WunderPhotos

Upload Photos

1,962,540 photos uploaded!

WunderBlog® & News

Nearby

Air Quality

  Air Quality AQ Index Pollutant
Not available.

Snow Depth

Station Depth Elevation

Earthquake Activity

City Distance Mag. Time & Date
Minimum magnitude displayed is 2.5.

Coastal Water Temperatures

Place Temperature

Stations

Nearby Weather Stations

Station Location Temp. Windchill Dew Point Humidity Wind Precip. Elev Updated Type
                   

Watches & Warnings

Winter Weather Advisory
Issued: 3:04 AM CST Feb. 25, 2017 – National Weather Service

... Winter Weather Advisory remains in effect until 7 am EST /6 am
CST/ this morning...

Hazardous weather...

* light snow will gradually diminish early this morning.
   Additional snowfall of up to an inch is possible.

* Winds gusting as high as 25 mph will produce patchy blowing and
   drifting snow in open areas.

Impacts...

* slippery travel is expected early this morning due to snow
   covered and icy roads.

Precautionary/preparedness actions...

* a Winter Weather Advisory means that periods of snow will
   cause travel difficulties. Be prepared for slippery roads and
   limited visibilities, and use caution while driving.

* Prepare, plan, and stay informed. Visit www.Weather.Gov/MQT